sensor_id;sensor_type;location;lat;lon;timestamp;P1;durP1;ratioP1;P2;durP2;ratioP2
209;SDS011;90;48.810;9.120;2023-02-28T00:00:50;8.15;;;5.85;;
209;SDS011;90;48.810;9.120;2023-02-28T00:03:17;5.93;;;5.60;;
209;SDS011;90;48.810;9.120;2023-02-28T00:05:44;8.48;;;6.03;;
209;SDS011;90;48.810;9.120;2023-02-28T00:08:11;6.45;;;5.30;;
209;SDS011;90;48.810;9.120;2023-02-28T00:10:40;12.50;;;5.63;;
209;SDS011;90;48.810;9.120;2023-02-28T00:13:07;6.57;;;4.90;;
209;SDS011;90;48.810;9.120;2023-02-28T00:15:34;9.05;;;5.80;;
209;SDS011;90;48.810;9.120;2023-02-28T00:18:01;6.05;;;5.20;;
209;SDS011;90;48.810;9.120;2023-02-28T00:20:28;6.30;;;5.32;;
209;SDS011;90;48.810;9.120;2023-02-28T00:22:55;7.15;;;5.10;;
209;SDS011;90;48.810;9.120;2023-02-28T00:25:23;7.50;;;5.18;;
209;SDS011;90;48.810;9.120;2023-02-28T00:27:52;5.35;;;5.05;;
209;SDS011;90;48.810;9.120;2023-02-28T00:30:20;6.47;;;6.00;;
209;SDS011;90;48.810;9.120;2023-02-28T00:32:48;6.95;;;5.80;;
209;SDS011;90;48.810;9.120;2023-02-28T00:35:16;8.20;;;5.60;;
209;SDS011;90;48.810;9.120;2023-02-28T00:37:43;9.05;;;6.20;;
209;SDS011;90;48.810;9.120;2023-02-28T00:40:11;7.65;;;5.82;;
209;SDS011;90;48.810;9.120;2023-02-28T00:42:38;10.18;;;6.55;;
209;SDS011;90;48.810;9.120;2023-02-28T00:45:07;6.32;;;5.95;;
209;SDS011;90;48.810;9.120;2023-02-28T00:47:34;6.47;;;5.93;;
209;SDS011;90;48.810;9.120;2023-02-28T00:50:01;6.88;;;5.80;;
209;SDS011;90;48.810;9.120;2023-02-28T00:52:29;8.10;;;5.80;;
209;SDS011;90;48.810;9.120;2023-02-28T00:54:56;6.78;;;5.63;;
209;SDS011;90;48.810;9.120;2023-02-28T00:57:23;6.45;;;5.72;;
209;SDS011;90;48.810;9.120;2023-02-28T00:59:51;9.05;;;5.65;;
209;SDS011;90;48.810;9.120;2023-02-28T01:02:20;7.15;;;6.25;;
209;SDS011;90;48.810;9.120;2023-02-28T01:04:48;6.15;;;5.85;;
209;SDS011;90;48.810;9.120;2023-02-28T01:07:15;6.97;;;5.95;;
209;SDS011;90;48.810;9.120;2023-02-28T01:09:42;8.10;;;6.30;;
209;SDS011;90;48.810;9.120;2023-02-28T01:12:09;6.47;;;5.72;;
209;SDS011;90;48.810;9.120;2023-02-28T01:14:36;9.23;;;6.60;;
209;SDS011;90;48.810;9.120;2023-02-28T01:17:03;8.30;;;6.65;;
209;SDS011;90;48.810;9.120;2023-02-28T01:19:32;6.57;;;6.15;;
209;SDS011;90;48.810;9.120;2023-02-28T01:22:00;8.10;;;6.43;;
209;SDS011;90;48.810;9.120;2023-02-28T01:24:27;7.00;;;6.45;;
209;SDS011;90;48.810;9.120;2023-02-28T01:26:54;7.40;;;5.93;;
209;SDS011;90;48.810;9.120;2023-02-28T01:29:22;8.50;;;6.80;;
209;SDS011;90;48.810;9.120;2023-02-28T01:31:49;10.85;;;6.45;;
209;SDS011;90;48.810;9.120;2023-02-28T01:34:16;11.30;;;6.97;;
209;SDS011;90;48.810;9.120;2023-02-28T01:36:45;9.10;;;7.10;;
209;SDS011;90;48.810;9.120;2023-02-28T01:39:12;9.05;;;7.07;;
209;SDS011;90;48.810;9.120;2023-02-28T01:41:39;11.52;;;6.93;;
209;SDS011;90;48.810;9.120;2023-02-28T01:44:07;7.45;;;6.55;;
209;SDS011;90;48.810;9.120;2023-02-28T01:46:49;9.95;;;7.13;;
209;SDS011;90;48.810;9.120;2023-02-28T01:49:16;10.20;;;7.03;;
209;SDS011;90;48.810;9.120;2023-02-28T01:51:46;9.18;;;6.80;;
209;SDS011;90;48.810;9.120;2023-02-28T01:54:17;9.63;;;7.40;;
209;SDS011;90;48.810;9.120;2023-02-28T01:56:47;8.95;;;6.90;;
209;SDS011;90;48.810;9.120;2023-02-28T01:59:19;9.70;;;7.30;;
209;SDS011;90;48.810;9.120;2023-02-28T02:01:50;9.55;;;7.03;;
209;SDS011;90;48.810;9.120;2023-02-28T02:04:18;10.10;;;7.13;;
209;SDS011;90;48.810;9.120;2023-02-28T02:06:49;9.82;;;7.55;;
209;SDS011;90;48.810;9.120;2023-02-28T02:09:16;10.02;;;7.45;;
209;SDS011;90;48.810;9.120;2023-02-28T02:11:43;11.90;;;7.40;;
209;SDS011;90;48.810;9.120;2023-02-28T02:14:19;10.10;;;8.20;;
209;SDS011;90;48.810;9.120;2023-02-28T02:17:12;10.48;;;7.65;;
209;SDS011;90;48.810;9.120;2023-02-28T02:19:52;10.98;;;7.97;;
209;SDS011;90;48.810;9.120;2023-02-28T02:22:53;13.23;;;7.75;;
209;SDS011;90;48.810;9.120;2023-02-28T02:25:45;10.35;;;7.55;;
209;SDS011;90;48.810;9.120;2023-02-28T02:28:29;9.50;;;7.82;;
209;SDS011;90;48.810;9.120;2023-02-28T02:31:27;10.70;;;7.40;;
209;SDS011;90;48.810;9.120;2023-02-28T02:34:31;9.40;;;7.35;;
209;SDS011;90;48.810;9.120;2023-02-28T02:37:13;11.40;;;7.78;;
209;SDS011;90;48.810;9.120;2023-02-28T02:39:45;12.23;;;7.88;;
209;SDS011;90;48.810;9.120;2023-02-28T02:42:20;12.10;;;7.60;;
209;SDS011;90;48.810;9.120;2023-02-28T02:44:52;10.23;;;7.78;;
209;SDS011;90;48.810;9.120;2023-02-28T02:47:25;13.57;;;8.48;;
209;SDS011;90;48.810;9.120;2023-02-28T02:49:57;11.45;;;7.80;;
209;SDS011;90;48.810;9.120;2023-02-28T02:52:30;17.73;;;9.02;;
209;SDS011;90;48.810;9.120;2023-02-28T02:55:01;10.05;;;8.70;;
209;SDS011;90;48.810;9.120;2023-02-28T02:57:30;10.32;;;7.95;;
209;SDS011;90;48.810;9.120;2023-02-28T03:00:00;8.93;;;7.75;;
209;SDS011;90;48.810;9.120;2023-02-28T03:02:30;11.45;;;7.57;;
209;SDS011;90;48.810;9.120;2023-02-28T03:05:03;10.70;;;8.02;;
209;SDS011;90;48.810;9.120;2023-02-28T03:07:34;11.07;;;8.05;;
209;SDS011;90;48.810;9.120;2023-02-28T03:10:01;10.15;;;8.23;;
209;SDS011;90;48.810;9.120;2023-02-28T03:12:33;12.73;;;8.43;;
209;SDS011;90;48.810;9.120;2023-02-28T03:15:08;18.48;;;8.43;;
209;SDS011;90;48.810;9.120;2023-02-28T03:17:53;9.25;;;7.68;;
209;SDS011;90;48.810;9.120;2023-02-28T03:20:35;10.52;;;7.70;;
209;SDS011;90;48.810;9.120;2023-02-28T03:23:09;12.43;;;7.97;;
209;SDS011;90;48.810;9.120;2023-02-28T03:25:45;11.18;;;7.93;;
209;SDS011;90;48.810;9.120;2023-02-28T03:28:31;10.85;;;8.50;;
209;SDS011;90;48.810;9.120;2023-02-28T03:31:13;11.43;;;8.30;;
209;SDS011;90;48.810;9.120;2023-02-28T03:33:44;11.38;;;8.20;;
209;SDS011;90;48.810;9.120;2023-02-28T03:36:21;14.00;;;8.80;;
209;SDS011;90;48.810;9.120;2023-02-28T03:38:53;15.95;;;8.85;;
209;SDS011;90;48.810;9.120;2023-02-28T03:41:25;12.68;;;8.30;;
209;SDS011;90;48.810;9.120;2023-02-28T03:43:56;14.82;;;9.15;;
209;SDS011;90;48.810;9.120;2023-02-28T03:46:28;11.52;;;8.20;;
209;SDS011;90;48.810;9.120;2023-02-28T03:49:02;16.70;;;8.90;;
209;SDS011;90;48.810;9.120;2023-02-28T03:51:34;12.15;;;8.20;;
209;SDS011;90;48.810;9.120;2023-02-28T03:54:04;11.50;;;8.10;;
209;SDS011;90;48.810;9.120;2023-02-28T03:56:37;9.80;;;8.43;;
209;SDS011;90;48.810;9.120;2023-02-28T03:59:09;13.73;;;8.82;;
209;SDS011;90;48.810;9.120;2023-02-28T04:01:42;14.45;;;8.68;;
209;SDS011;90;48.810;9.120;2023-02-28T04:04:11;13.80;;;9.18;;
209;SDS011;90;48.810;9.120;2023-02-28T04:06:41;12.20;;;7.75;;
209;SDS011;90;48.810;9.120;2023-02-28T04:09:09;12.88;;;8.45;;
209;SDS011;90;48.810;9.120;2023-02-28T04:11:38;15.85;;;9.95;;
209;SDS011;90;48.810;9.120;2023-02-28T04:14:07;14.63;;;8.43;;
209;SDS011;90;48.810;9.120;2023-02-28T04:16:35;15.40;;;9.10;;
209;SDS011;90;48.810;9.120;2023-02-28T04:19:04;12.38;;;8.82;;
209;SDS011;90;48.810;9.120;2023-02-28T04:21:33;16.48;;;8.23;;
209;SDS011;90;48.810;9.120;2023-02-28T04:24:03;14.70;;;9.68;;
209;SDS011;90;48.810;9.120;2023-02-28T04:26:31;14.15;;;8.30;;
209;SDS011;90;48.810;9.120;2023-02-28T04:28:59;12.77;;;8.80;;
209;SDS011;90;48.810;9.120;2023-02-28T04:31:26;11.88;;;8.30;;
209;SDS011;90;48.810;9.120;2023-02-28T04:33:53;12.88;;;9.10;;
209;SDS011;90;48.810;9.120;2023-02-28T04:36:20;15.05;;;9.05;;
209;SDS011;90;48.810;9.120;2023-02-28T04:38:48;12.68;;;8.57;;
209;SDS011;90;48.810;9.120;2023-02-28T04:41:17;15.10;;;9.30;;
209;SDS011;90;48.810;9.120;2023-02-28T04:43:44;15.75;;;9.45;;
209;SDS011;90;48.810;9.120;2023-02-28T04:46:11;13.73;;;9.50;;
209;SDS011;90;48.810;9.120;2023-02-28T04:48:38;10.20;;;7.82;;
209;SDS011;90;48.810;9.120;2023-02-28T04:51:07;13.07;;;8.65;;
209;SDS011;90;48.810;9.120;2023-02-28T04:53:35;17.25;;;9.10;;
209;SDS011;90;48.810;9.120;2023-02-28T04:56:04;13.05;;;9.82;;
209;SDS011;90;48.810;9.120;2023-02-28T04:58:33;12.45;;;9.02;;
209;SDS011;90;48.810;9.120;2023-02-28T05:01:01;17.30;;;8.70;;
209;SDS011;90;48.810;9.120;2023-02-28T05:03:29;15.63;;;9.65;;
209;SDS011;90;48.810;9.120;2023-02-28T05:05:56;13.57;;;8.60;;
209;SDS011;90;48.810;9.120;2023-02-28T05:08:23;17.88;;;9.25;;
209;SDS011;90;48.810;9.120;2023-02-28T05:10:50;14.27;;;9.27;;
209;SDS011;90;48.810;9.120;2023-02-28T05:13:17;10.95;;;8.40;;
209;SDS011;90;48.810;9.120;2023-02-28T05:15:45;12.98;;;8.65;;
209;SDS011;90;48.810;9.120;2023-02-28T05:18:12;14.43;;;9.32;;
209;SDS011;90;48.810;9.120;2023-02-28T05:20:39;15.35;;;9.93;;
209;SDS011;90;48.810;9.120;2023-02-28T05:23:07;18.40;;;9.93;;
209;SDS011;90;48.810;9.120;2023-02-28T05:25:36;13.73;;;9.15;;
209;SDS011;90;48.810;9.120;2023-02-28T05:28:03;14.50;;;9.80;;
209;SDS011;90;48.810;9.120;2023-02-28T05:30:31;18.52;;;10.07;;
209;SDS011;90;48.810;9.120;2023-02-28T05:32:59;15.45;;;9.73;;
209;SDS011;90;48.810;9.120;2023-02-28T05:35:26;18.38;;;10.10;;
209;SDS011;90;48.810;9.120;2023-02-28T05:37:53;18.48;;;10.18;;
209;SDS011;90;48.810;9.120;2023-02-28T05:40:20;13.98;;;9.32;;
209;SDS011;90;48.810;9.120;2023-02-28T05:42:49;15.88;;;9.13;;
209;SDS011;90;48.810;9.120;2023-02-28T05:45:16;17.98;;;10.13;;
209;SDS011;90;48.810;9.120;2023-02-28T05:47:43;17.58;;;10.85;;
209;SDS011;90;48.810;9.120;2023-02-28T05:50:12;18.05;;;9.75;;
209;SDS011;90;48.810;9.120;2023-02-28T05:52:39;18.52;;;10.30;;
209;SDS011;90;48.810;9.120;2023-02-28T05:55:06;13.45;;;9.40;;
209;SDS011;90;48.810;9.120;2023-02-28T05:57:33;16.33;;;10.05;;
209;SDS011;90;48.810;9.120;2023-02-28T06:00:01;15.18;;;9.70;;
209;SDS011;90;48.810;9.120;2023-02-28T06:02:29;16.05;;;9.32;;
209;SDS011;90;48.810;9.120;2023-02-28T06:04:56;17.55;;;10.00;;
209;SDS011;90;48.810;9.120;2023-02-28T06:07:24;16.02;;;10.63;;
209;SDS011;90;48.810;9.120;2023-02-28T06:09:51;15.07;;;9.55;;
209;SDS011;90;48.810;9.120;2023-02-28T06:12:18;16.60;;;9.75;;
209;SDS011;90;48.810;9.120;2023-02-28T06:14:45;16.85;;;9.27;;
209;SDS011;90;48.810;9.120;2023-02-28T06:17:12;16.55;;;9.50;;
209;SDS011;90;48.810;9.120;2023-02-28T06:19:38;21.98;;;10.07;;
209;SDS011;90;48.810;9.120;2023-02-28T06:22:06;15.20;;;9.65;;
209;SDS011;90;48.810;9.120;2023-02-28T06:24:34;14.65;;;9.85;;
209;SDS011;90;48.810;9.120;2023-02-28T06:27:01;18.23;;;9.98;;
209;SDS011;90;48.810;9.120;2023-02-28T06:29:30;18.85;;;10.35;;
209;SDS011;90;48.810;9.120;2023-02-28T06:31:57;14.23;;;9.90;;
209;SDS011;90;48.810;9.120;2023-02-28T06:34:24;15.80;;;9.73;;
209;SDS011;90;48.810;9.120;2023-02-28T06:36:51;19.38;;;10.75;;
209;SDS011;90;48.810;9.120;2023-02-28T06:39:19;18.83;;;9.75;;
209;SDS011;90;48.810;9.120;2023-02-28T06:41:48;14.68;;;9.40;;
209;SDS011;90;48.810;9.120;2023-02-28T06:44:17;21.33;;;11.43;;
209;SDS011;90;48.810;9.120;2023-02-28T06:46:44;27.92;;;10.93;;
209;SDS011;90;48.810;9.120;2023-02-28T06:49:11;15.25;;;10.65;;
209;SDS011;90;48.810;9.120;2023-02-28T06:51:40;19.60;;;10.05;;
209;SDS011;90;48.810;9.120;2023-02-28T06:54:10;15.73;;;10.38;;
209;SDS011;90;48.810;9.120;2023-02-28T06:56:37;14.32;;;9.85;;
209;SDS011;90;48.810;9.120;2023-02-28T06:59:05;16.50;;;10.30;;
209;SDS011;90;48.810;9.120;2023-02-28T07:01:32;16.05;;;9.85;;
209;SDS011;90;48.810;9.120;2023-02-28T07:03:59;21.48;;;10.10;;
209;SDS011;90;48.810;9.120;2023-02-28T07:06:27;19.05;;;10.50;;
209;SDS011;90;48.810;9.120;2023-02-28T07:08:54;18.52;;;9.90;;
209;SDS011;90;48.810;9.120;2023-02-28T07:11:22;17.65;;;10.60;;
209;SDS011;90;48.810;9.120;2023-02-28T07:13:53;17.10;;;10.18;;
209;SDS011;90;48.810;9.120;2023-02-28T07:16:22;20.33;;;9.85;;
209;SDS011;90;48.810;9.120;2023-02-28T07:18:51;14.90;;;10.27;;
209;SDS011;90;48.810;9.120;2023-02-28T07:21:19;20.48;;;10.55;;
209;SDS011;90;48.810;9.120;2023-02-28T07:23:47;24.35;;;10.20;;
209;SDS011;90;48.810;9.120;2023-02-28T07:26:14;18.85;;;10.45;;
209;SDS011;90;48.810;9.120;2023-02-28T07:28:42;18.23;;;10.35;;
209;SDS011;90;48.810;9.120;2023-02-28T07:31:10;20.90;;;10.43;;
209;SDS011;90;48.810;9.120;2023-02-28T07:33:41;17.30;;;10.38;;
209;SDS011;90;48.810;9.120;2023-02-28T07:36:10;17.48;;;10.10;;
209;SDS011;90;48.810;9.120;2023-02-28T07:38:40;20.63;;;10.75;;
209;SDS011;90;48.810;9.120;2023-02-28T07:41:08;17.83;;;10.80;;
209;SDS011;90;48.810;9.120;2023-02-28T07:43:36;15.20;;;9.80;;
209;SDS011;90;48.810;9.120;2023-02-28T07:46:04;18.45;;;10.27;;
209;SDS011;90;48.810;9.120;2023-02-28T07:48:33;22.27;;;10.90;;
209;SDS011;90;48.810;9.120;2023-02-28T07:51:02;20.45;;;11.30;;
209;SDS011;90;48.810;9.120;2023-02-28T07:53:30;16.95;;;10.00;;
209;SDS011;90;48.810;9.120;2023-02-28T07:55:59;20.45;;;10.60;;
209;SDS011;90;48.810;9.120;2023-02-28T07:58:28;20.90;;;11.32;;
209;SDS011;90;48.810;9.120;2023-02-28T08:00:57;19.90;;;11.68;;
209;SDS011;90;48.810;9.120;2023-02-28T08:03:33;23.60;;;12.13;;
209;SDS011;90;48.810;9.120;2023-02-28T08:06:03;20.60;;;11.45;;
209;SDS011;90;48.810;9.120;2023-02-28T08:08:31;19.33;;;11.70;;
209;SDS011;90;48.810;9.120;2023-02-28T08:11:02;19.98;;;11.32;;
209;SDS011;90;48.810;9.120;2023-02-28T08:13:45;19.73;;;11.27;;
209;SDS011;90;48.810;9.120;2023-02-28T08:16:12;19.23;;;10.88;;
209;SDS011;90;48.810;9.120;2023-02-28T08:18:42;20.83;;;11.88;;
209;SDS011;90;48.810;9.120;2023-02-28T08:21:11;18.85;;;11.25;;
209;SDS011;90;48.810;9.120;2023-02-28T08:23:38;16.88;;;10.80;;
209;SDS011;90;48.810;9.120;2023-02-28T08:26:05;22.50;;;11.77;;
209;SDS011;90;48.810;9.120;2023-02-28T08:28:32;22.92;;;12.20;;
209;SDS011;90;48.810;9.120;2023-02-28T08:30:59;18.42;;;11.55;;
209;SDS011;90;48.810;9.120;2023-02-28T08:33:27;20.98;;;12.00;;
209;SDS011;90;48.810;9.120;2023-02-28T08:35:54;20.45;;;12.27;;
209;SDS011;90;48.810;9.120;2023-02-28T08:38:23;20.90;;;11.23;;
209;SDS011;90;48.810;9.120;2023-02-28T08:40:53;17.13;;;11.05;;
209;SDS011;90;48.810;9.120;2023-02-28T08:43:23;25.40;;;13.10;;
209;SDS011;90;48.810;9.120;2023-02-28T08:45:51;22.70;;;11.77;;
209;SDS011;90;48.810;9.120;2023-02-28T08:48:18;22.20;;;12.18;;
209;SDS011;90;48.810;9.120;2023-02-28T08:50:53;21.67;;;11.93;;
209;SDS011;90;48.810;9.120;2023-02-28T08:53:22;21.67;;;11.85;;
209;SDS011;90;48.810;9.120;2023-02-28T08:55:55;23.58;;;12.40;;
209;SDS011;90;48.810;9.120;2023-02-28T08:58:23;25.83;;;12.50;;
209;SDS011;90;48.810;9.120;2023-02-28T09:00:50;20.83;;;12.07;;
209;SDS011;90;48.810;9.120;2023-02-28T09:03:17;24.42;;;12.65;;
209;SDS011;90;48.810;9.120;2023-02-28T09:05:51;22.20;;;12.02;;
209;SDS011;90;48.810;9.120;2023-02-28T09:08:20;19.45;;;11.70;;
209;SDS011;90;48.810;9.120;2023-02-28T09:10:48;25.27;;;13.23;;
209;SDS011;90;48.810;9.120;2023-02-28T09:13:16;20.55;;;12.20;;
209;SDS011;90;48.810;9.120;2023-02-28T09:15:42;23.90;;;12.50;;
209;SDS011;90;48.810;9.120;2023-02-28T09:18:10;18.92;;;11.93;;
209;SDS011;90;48.810;9.120;2023-02-28T09:20:37;23.92;;;12.98;;
209;SDS011;90;48.810;9.120;2023-02-28T09:23:05;26.05;;;13.02;;
209;SDS011;90;48.810;9.120;2023-02-28T09:25:32;24.23;;;12.93;;
209;SDS011;90;48.810;9.120;2023-02-28T09:28:01;21.92;;;13.23;;
209;SDS011;90;48.810;9.120;2023-02-28T09:30:28;24.00;;;13.82;;
209;SDS011;90;48.810;9.120;2023-02-28T09:32:55;22.50;;;12.95;;
209;SDS011;90;48.810;9.120;2023-02-28T09:35:23;25.45;;;14.02;;
209;SDS011;90;48.810;9.120;2023-02-28T09:37:52;25.48;;;13.02;;
209;SDS011;90;48.810;9.120;2023-02-28T09:40:34;28.17;;;13.73;;
209;SDS011;90;48.810;9.120;2023-02-28T09:43:04;20.95;;;12.40;;
209;SDS011;90;48.810;9.120;2023-02-28T09:45:33;24.55;;;13.80;;
209;SDS011;90;48.810;9.120;2023-02-28T09:48:03;22.35;;;12.80;;
209;SDS011;90;48.810;9.120;2023-02-28T09:50:36;23.23;;;13.07;;
209;SDS011;90;48.810;9.120;2023-02-28T09:53:10;21.70;;;13.20;;
209;SDS011;90;48.810;9.120;2023-02-28T09:55:47;20.40;;;12.73;;
209;SDS011;90;48.810;9.120;2023-02-28T09:58:20;21.15;;;13.05;;
209;SDS011;90;48.810;9.120;2023-02-28T10:00:56;23.05;;;13.05;;
209;SDS011;90;48.810;9.120;2023-02-28T10:03:27;28.08;;;14.48;;
209;SDS011;90;48.810;9.120;2023-02-28T10:05:59;30.40;;;13.80;;
209;SDS011;90;48.810;9.120;2023-02-28T10:08:32;24.23;;;13.85;;
209;SDS011;90;48.810;9.120;2023-02-28T10:11:06;26.13;;;13.82;;
209;SDS011;90;48.810;9.120;2023-02-28T10:13:37;29.23;;;14.35;;
209;SDS011;90;48.810;9.120;2023-02-28T10:16:17;23.27;;;14.05;;
209;SDS011;90;48.810;9.120;2023-02-28T10:18:51;26.13;;;14.13;;
209;SDS011;90;48.810;9.120;2023-02-28T10:21:23;25.20;;;13.38;;
209;SDS011;90;48.810;9.120;2023-02-28T10:23:56;26.88;;;13.75;;
209;SDS011;90;48.810;9.120;2023-02-28T10:26:29;27.88;;;13.90;;
209;SDS011;90;48.810;9.120;2023-02-28T10:29:00;23.10;;;12.95;;
209;SDS011;90;48.810;9.120;2023-02-28T10:31:27;22.58;;;14.05;;
209;SDS011;90;48.810;9.120;2023-02-28T10:33:54;22.45;;;13.63;;
209;SDS011;90;48.810;9.120;2023-02-28T10:36:22;25.75;;;14.45;;
209;SDS011;90;48.810;9.120;2023-02-28T10:38:49;29.00;;;15.20;;
209;SDS011;90;48.810;9.120;2023-02-28T10:41:17;23.10;;;14.27;;
209;SDS011;90;48.810;9.120;2023-02-28T10:44:12;27.90;;;14.55;;
209;SDS011;90;48.810;9.120;2023-02-28T10:46:43;24.40;;;13.75;;
209;SDS011;90;48.810;9.120;2023-02-28T10:49:12;23.17;;;13.65;;
209;SDS011;90;48.810;9.120;2023-02-28T10:51:43;24.38;;;13.73;;
209;SDS011;90;48.810;9.120;2023-02-28T10:54:16;25.08;;;14.15;;
209;SDS011;90;48.810;9.120;2023-02-28T10:56:45;24.60;;;13.23;;
209;SDS011;90;48.810;9.120;2023-02-28T10:59:34;25.75;;;13.45;;
209;SDS011;90;48.810;9.120;2023-02-28T11:02:07;25.20;;;13.85;;
209;SDS011;90;48.810;9.120;2023-02-28T11:04:57;23.15;;;13.90;;
209;SDS011;90;48.810;9.120;2023-02-28T11:07:24;23.10;;;13.90;;
209;SDS011;90;48.810;9.120;2023-02-28T11:09:54;23.88;;;13.50;;
209;SDS011;90;48.810;9.120;2023-02-28T11:12:23;23.92;;;14.40;;
209;SDS011;90;48.810;9.120;2023-02-28T11:14:57;28.42;;;14.48;;
209;SDS011;90;48.810;9.120;2023-02-28T11:17:26;25.23;;;14.40;;
209;SDS011;90;48.810;9.120;2023-02-28T11:19:56;21.88;;;12.60;;
209;SDS011;90;48.810;9.120;2023-02-28T11:22:28;25.00;;;14.15;;
209;SDS011;90;48.810;9.120;2023-02-28T11:24:59;28.27;;;14.45;;
209;SDS011;90;48.810;9.120;2023-02-28T11:27:45;25.95;;;14.45;;
209;SDS011;90;48.810;9.120;2023-02-28T11:35:59;24.30;;;14.20;;
209;SDS011;90;48.810;9.120;2023-02-28T11:38:37;23.58;;;14.38;;
209;SDS011;90;48.810;9.120;2023-02-28T11:41:08;30.63;;;15.02;;
209;SDS011;90;48.810;9.120;2023-02-28T11:43:57;27.30;;;13.98;;
209;SDS011;90;48.810;9.120;2023-02-28T11:46:33;28.15;;;15.30;;
209;SDS011;90;48.810;9.120;2023-02-28T11:49:10;21.98;;;12.85;;
209;SDS011;90;48.810;9.120;2023-02-28T11:51:48;24.90;;;13.65;;
209;SDS011;90;48.810;9.120;2023-02-28T11:54:24;28.40;;;14.75;;
209;SDS011;90;48.810;9.120;2023-02-28T11:57:03;22.92;;;14.05;;
209;SDS011;90;48.810;9.120;2023-02-28T11:59:50;26.73;;;13.40;;
209;SDS011;90;48.810;9.120;2023-02-28T12:02:28;24.70;;;14.45;;
209;SDS011;90;48.810;9.120;2023-02-28T12:05:08;26.65;;;14.75;;
209;SDS011;90;48.810;9.120;2023-02-28T12:07:47;25.00;;;14.65;;
209;SDS011;90;48.810;9.120;2023-02-28T12:10:23;30.08;;;14.75;;
209;SDS011;90;48.810;9.120;2023-02-28T12:13:01;21.67;;;13.60;;
209;SDS011;90;48.810;9.120;2023-02-28T12:15:51;22.63;;;14.45;;
209;SDS011;90;48.810;9.120;2023-02-28T12:18:45;23.33;;;13.90;;
209;SDS011;90;48.810;9.120;2023-02-28T12:21:24;23.48;;;13.45;;
209;SDS011;90;48.810;9.120;2023-02-28T12:24:04;28.77;;;15.15;;
209;SDS011;90;48.810;9.120;2023-02-28T12:26:43;38.83;;;16.45;;
209;SDS011;90;48.810;9.120;2023-02-28T12:29:14;25.20;;;14.88;;
209;SDS011;90;48.810;9.120;2023-02-28T12:31:46;22.95;;;13.30;;
209;SDS011;90;48.810;9.120;2023-02-28T12:34:18;27.23;;;15.38;;
209;SDS011;90;48.810;9.120;2023-02-28T12:36:48;26.60;;;14.68;;
209;SDS011;90;48.810;9.120;2023-02-28T12:39:18;26.58;;;14.90;;
209;SDS011;90;48.810;9.120;2023-02-28T12:41:51;25.98;;;14.50;;
209;SDS011;90;48.810;9.120;2023-02-28T12:44:26;27.45;;;14.75;;
209;SDS011;90;48.810;9.120;2023-02-28T12:47:02;25.85;;;14.35;;
209;SDS011;90;48.810;9.120;2023-02-28T12:49:34;22.30;;;13.40;;
209;SDS011;90;48.810;9.120;2023-02-28T12:52:06;27.05;;;14.55;;
209;SDS011;90;48.810;9.120;2023-02-28T12:54:38;23.00;;;13.45;;
209;SDS011;90;48.810;9.120;2023-02-28T12:57:14;26.63;;;14.00;;
209;SDS011;90;48.810;9.120;2023-02-28T12:59:49;21.08;;;13.65;;
209;SDS011;90;48.810;9.120;2023-02-28T13:02:29;27.30;;;14.88;;
209;SDS011;90;48.810;9.120;2023-02-28T13:05:18;24.23;;;13.90;;
209;SDS011;90;48.810;9.120;2023-02-28T13:10:50;24.27;;;13.52;;
209;SDS011;90;48.810;9.120;2023-02-28T13:13:20;27.52;;;14.70;;
209;SDS011;90;48.810;9.120;2023-02-28T13:16:00;23.88;;;14.38;;
209;SDS011;90;48.810;9.120;2023-02-28T13:18:34;21.25;;;12.98;;
209;SDS011;90;48.810;9.120;2023-02-28T13:21:06;25.10;;;14.35;;
209;SDS011;90;48.810;9.120;2023-02-28T13:23:38;24.00;;;13.63;;
209;SDS011;90;48.810;9.120;2023-02-28T13:29:32;22.73;;;12.95;;
209;SDS011;90;48.810;9.120;2023-02-28T13:32:28;21.13;;;12.55;;
209;SDS011;90;48.810;9.120;2023-02-28T13:38:12;22.80;;;13.68;;
209;SDS011;90;48.810;9.120;2023-02-28T13:40:43;24.13;;;13.82;;
209;SDS011;90;48.810;9.120;2023-02-28T13:43:11;20.52;;;13.15;;
209;SDS011;90;48.810;9.120;2023-02-28T13:48:36;24.10;;;13.50;;
209;SDS011;90;48.810;9.120;2023-02-28T13:54:13;22.13;;;12.03;;
209;SDS011;90;48.810;9.120;2023-02-28T13:56:48;22.00;;;11.97;;
209;SDS011;90;48.810;9.120;2023-02-28T13:59:25;21.43;;;13.27;;
209;SDS011;90;48.810;9.120;2023-02-28T14:02:08;19.63;;;12.93;;
209;SDS011;90;48.810;9.120;2023-02-28T14:05:00;23.60;;;12.90;;
209;SDS011;90;48.810;9.120;2023-02-28T14:07:30;20.47;;;12.50;;
209;SDS011;90;48.810;9.120;2023-02-28T14:10:05;21.70;;;12.93;;
209;SDS011;90;48.810;9.120;2023-02-28T14:15:36;25.03;;;13.37;;
209;SDS011;90;48.810;9.120;2023-02-28T14:18:14;26.10;;;13.03;;
209;SDS011;90;48.810;9.120;2023-02-28T14:20:52;21.70;;;12.23;;
209;SDS011;90;48.810;9.120;2023-02-28T14:23:34;28.17;;;12.63;;
209;SDS011;90;48.810;9.120;2023-02-28T14:26:23;23.33;;;13.07;;
209;SDS011;90;48.810;9.120;2023-02-28T14:29:05;18.70;;;11.90;;
209;SDS011;90;48.810;9.120;2023-02-28T14:31:46;20.87;;;12.70;;
209;SDS011;90;48.810;9.120;2023-02-28T14:34:25;20.83;;;12.63;;
209;SDS011;90;48.810;9.120;2023-02-28T14:37:01;24.23;;;12.83;;
209;SDS011;90;48.810;9.120;2023-02-28T14:39:29;21.10;;;12.87;;
209;SDS011;90;48.810;9.120;2023-02-28T14:41:59;23.67;;;11.80;;
209;SDS011;90;48.810;9.120;2023-02-28T14:44:30;20.53;;;12.33;;
209;SDS011;90;48.810;9.120;2023-02-28T14:46:59;20.17;;;12.47;;
209;SDS011;90;48.810;9.120;2023-02-28T14:49:31;24.60;;;13.37;;
209;SDS011;90;48.810;9.120;2023-02-28T14:52:02;23.10;;;12.23;;
209;SDS011;90;48.810;9.120;2023-02-28T14:54:34;21.10;;;12.73;;
209;SDS011;90;48.810;9.120;2023-02-28T14:57:04;21.50;;;11.77;;
209;SDS011;90;48.810;9.120;2023-02-28T14:59:31;21.83;;;11.57;;
209;SDS011;90;48.810;9.120;2023-02-28T15:02:18;19.53;;;12.43;;
209;SDS011;90;48.810;9.120;2023-02-28T15:04:54;19.67;;;11.63;;
209;SDS011;90;48.810;9.120;2023-02-28T15:07:23;18.30;;;11.90;;
209;SDS011;90;48.810;9.120;2023-02-28T15:10:06;22.67;;;12.50;;
209;SDS011;90;48.810;9.120;2023-02-28T15:12:45;14.70;;;8.23;;
209;SDS011;90;48.810;9.120;2023-02-28T15:15:19;19.63;;;11.40;;
209;SDS011;90;48.810;9.120;2023-02-28T15:17:49;22.90;;;13.03;;
209;SDS011;90;48.810;9.120;2023-02-28T15:20:36;19.27;;;12.40;;
209;SDS011;90;48.810;9.120;2023-02-28T15:23:49;22.60;;;12.43;;
209;SDS011;90;48.810;9.120;2023-02-28T15:26:37;19.63;;;11.80;;
209;SDS011;90;48.810;9.120;2023-02-28T15:32:06;20.33;;;12.40;;
209;SDS011;90;48.810;9.120;2023-02-28T15:38:03;22.53;;;12.70;;
209;SDS011;90;48.810;9.120;2023-02-28T15:40:41;23.20;;;13.00;;
209;SDS011;90;48.810;9.120;2023-02-28T15:43:37;20.33;;;12.47;;
209;SDS011;90;48.810;9.120;2023-02-28T16:24:03;28.13;;;13.70;;
209;SDS011;90;48.810;9.120;2023-02-28T16:26:31;27.00;;;13.77;;
209;SDS011;90;48.810;9.120;2023-02-28T16:28:59;22.52;;;13.50;;
209;SDS011;90;48.810;9.120;2023-02-28T16:31:29;22.95;;;13.52;;
209;SDS011;90;48.810;9.120;2023-02-28T16:34:00;24.75;;;13.52;;
209;SDS011;90;48.810;9.120;2023-02-28T16:36:28;24.67;;;13.48;;
209;SDS011;90;48.810;9.120;2023-02-28T16:38:56;26.70;;;13.68;;
209;SDS011;90;48.810;9.120;2023-02-28T16:41:25;24.27;;;13.70;;
209;SDS011;90;48.810;9.120;2023-02-28T16:43:55;27.23;;;14.18;;
209;SDS011;90;48.810;9.120;2023-02-28T16:46:25;24.65;;;13.80;;
209;SDS011;90;48.810;9.120;2023-02-28T16:48:57;25.42;;;13.48;;
209;SDS011;90;48.810;9.120;2023-02-28T16:51:27;25.27;;;13.98;;
209;SDS011;90;48.810;9.120;2023-02-28T16:53:54;24.85;;;14.30;;
209;SDS011;90;48.810;9.120;2023-02-28T16:56:22;28.90;;;15.10;;
209;SDS011;90;48.810;9.120;2023-02-28T16:58:54;22.52;;;13.80;;
209;SDS011;90;48.810;9.120;2023-02-28T17:01:27;26.48;;;15.38;;
209;SDS011;90;48.810;9.120;2023-02-28T17:13:50;29.33;;;15.13;;
209;SDS011;90;48.810;9.120;2023-02-28T17:16:21;25.33;;;14.38;;
209;SDS011;90;48.810;9.120;2023-02-28T17:18:52;28.92;;;15.15;;
209;SDS011;90;48.810;9.120;2023-02-28T17:21:21;27.45;;;14.55;;
209;SDS011;90;48.810;9.120;2023-02-28T17:23:48;28.83;;;15.25;;